Aeroporto :
LOGIN :

Iscrizione | Disclaimer

   EN    FR    IT 

 










Sommario :    VFR   VFR Marginale   IFR   IFR Intensivo   IFR Molto Intensivo
Visibilità : 
Base nubi : 
>= 8 km
>= 3000ft
5 / 8 km
1000 / 3000 ft
1500m / 5 km
500 / 1000 ft
800 / 1500m
200 / 500 ft
< 800m
< 200 ft
Simboli :   Temporali  Nebbia  Neve Forte  Precipitazioni Forti  Vento > 20 kt
SIGMETs :   Varie  Temporali  Ghiacco  Turbolenza  Onda orograficha  Ceneri Vulcaniche







- Altitudine del aeroporto : 1411 ft
- Codice IATA : ZHI


LSZG - Grenchen

ULTIMO METAR :
  • 100820Z 25009KT 9999 -DZ FEW010 SCT060 BKN120 05/02 Q1024 NOSIG

METARs OBSOLETI :
  • 100750Z 29012KT 8000 -DZ FEW015 SCT035 05/01 Q1024 NOSIG
  • 100720Z 32017G33KT 8000 FEW015 SCT035 05/00 Q1023 NOSIG
  • 100650Z 30019G32KT 9999 SCT018 SCT035 06/M00 Q1023 NOSIG
  • 100620Z 31019G31KT 9999 -RA SCT018 06/00 Q1023 NOSIG
  • 100550Z AUTO 30022G36KT CAVOK 06/00 Q1022

TAF TAF LSZG
Valido dal 10 a 09 ore il 10 a 18 ore UTC


100825Z 1009/1018 22008KT 9999 FEW015 SCT035
TEMPO 1009/1015 30020G32KT 4000 SHRA FEW030TCU
ATIS : +41 32 396 96 33
Nessun NOTAM noto per questo aeroporto.



MetMap, La meteo Aeronautica in un colpo d'occhio ! - Copyright ORBIFLY Dicembre 2007 - Disclaimer

ORBIFLY MET'MAP TEAM :

Programmazione e sviluppo : Alexandra Zaïnal
Concezione e sviluppo : Baudouin d'Aumeries
Co-Programmazione e sviluppo : Marc-Olivier Méhu
Supporto tecnico e logistico : Manuel Goepfert
Aiuto per la traduzione : Arnaldo La Scala

Contatto : metmap@orbifly.com




FONTI E CREDITI :

   NOAA